createdAt,value
2023-05-23T00:01:44.048Z,35.23
2023-05-23T00:04:48.302Z,34.56
2023-05-23T00:07:52.379Z,36.02
2023-05-23T00:10:56.483Z,34.86
2023-05-23T00:14:01.988Z,34.44
2023-05-23T00:17:06.605Z,34.32
2023-05-23T00:20:12.800Z,33.73
2023-05-23T00:23:19.957Z,33.91
2023-05-23T00:26:24.977Z,33.09
2023-05-23T00:29:28.793Z,33.61
2023-05-23T00:32:33.162Z,34.08
2023-05-23T00:35:37.365Z,33.30
2023-05-23T00:38:41.801Z,32.88
2023-05-23T00:41:52.210Z,33.13
2023-05-23T00:44:57.473Z,32.84
2023-05-23T00:48:02.417Z,32.20
2023-05-23T00:51:06.899Z,32.28
2023-05-23T00:54:11.773Z,31.91
2023-05-23T00:57:16.094Z,31.94
2023-05-23T01:00:21.390Z,31.89
2023-05-23T01:03:29.549Z,31.17
2023-05-23T01:06:34.236Z,31.23
2023-05-23T01:13:08.239Z,30.50
2023-05-23T01:16:31.337Z,30.41
2023-05-23T01:20:01.473Z,29.97
2023-05-23T01:23:26.839Z,29.44
2023-05-23T01:26:37.039Z,29.49
2023-05-23T01:29:53.389Z,28.31
2023-05-23T01:32:59.621Z,29.22
2023-05-23T01:36:04.660Z,29.33
2023-05-23T01:39:09.041Z,29.13
2023-05-23T01:42:13.708Z,29.23
2023-05-23T01:45:18.851Z,29.43
2023-05-23T01:48:24.947Z,29.01
2023-05-23T01:51:29.776Z,28.32
2023-05-23T01:54:36.227Z,27.40
2023-05-23T01:57:40.948Z,28.67
2023-05-23T02:00:45.309Z,31.22
2023-05-23T02:03:49.875Z,32.41
2023-05-23T02:06:53.941Z,31.03
2023-05-23T02:09:58.054Z,31.14
2023-05-23T02:13:02.366Z,31.02
2023-05-23T02:16:06.954Z,31.55
2023-05-23T02:19:11.464Z,31.14
2023-05-23T02:22:16.151Z,32.83
2023-05-23T02:25:20.454Z,32.56
2023-05-23T02:28:24.862Z,31.50
2023-05-23T02:31:29.163Z,30.59
2023-05-23T02:34:33.645Z,30.58
2023-05-23T02:37:38.317Z,29.92
2023-05-23T02:40:42.476Z,30.85
2023-05-23T02:43:48.416Z,31.59
2023-05-23T02:46:53.593Z,32.41
2023-05-23T02:50:00.529Z,31.84
2023-05-23T02:53:06.326Z,32.90
2023-05-23T02:56:11.198Z,31.97
2023-05-23T02:59:18.865Z,32.76
2023-05-23T03:02:23.243Z,32.73
2023-05-23T03:05:28.113Z,32.43
2023-05-23T03:08:32.119Z,32.76
2023-05-23T03:11:36.186Z,33.31
2023-05-23T03:14:42.939Z,32.17
2023-05-23T03:17:47.045Z,31.13
2023-05-23T03:20:56.121Z,31.99
2023-05-23T03:24:01.423Z,30.61
2023-05-23T03:27:07.280Z,31.78
2023-05-23T03:30:12.221Z,31.67
2023-05-23T03:33:16.897Z,31.95
2023-05-23T03:36:21.031Z,32.31
2023-05-23T03:39:25.914Z,32.35
2023-05-23T03:42:30.241Z,30.92
2023-05-23T03:45:35.106Z,31.34
2023-05-23T03:48:43.122Z,32.15
2023-05-23T03:51:47.396Z,32.90
2023-05-23T03:54:54.002Z,32.96
2023-05-23T03:57:58.624Z,33.33
2023-05-23T04:05:53.269Z,34.18
2023-05-23T04:09:09.707Z,33.32
2023-05-23T04:12:20.249Z,33.74
2023-05-23T04:15:27.200Z,35.14
2023-05-23T04:18:42.416Z,33.92
2023-05-23T04:21:57.566Z,33.80
2023-05-23T04:25:14.787Z,33.35
2023-05-23T04:28:35.050Z,32.86
2023-05-23T04:31:52.751Z,33.13
2023-05-23T04:35:12.893Z,32.97
2023-05-23T04:38:23.059Z,32.62
2023-05-23T04:41:37.736Z,32.81
2023-05-23T04:44:50.974Z,31.87
2023-05-23T04:48:00.139Z,32.70
2023-05-23T04:51:32.125Z,32.66
2023-05-23T04:54:57.712Z,32.60
2023-05-23T04:58:07.268Z,32.53
2023-05-23T05:01:16.365Z,32.40
2023-05-23T05:04:21.531Z,31.93
2023-05-23T05:07:25.945Z,31.18
2023-05-23T05:10:30.055Z,31.97
2023-05-23T05:13:34.384Z,32.39
2023-05-23T05:16:38.873Z,32.50
2023-05-23T05:19:43.035Z,33.44
2023-05-23T05:22:49.927Z,33.61
2023-05-23T05:25:54.759Z,33.95
2023-05-23T05:28:59.725Z,34.45
2023-05-23T05:32:04.271Z,34.14
2023-05-23T05:35:09.628Z,34.12
2023-05-23T05:38:13.615Z,33.89
2023-05-23T05:41:18.383Z,34.62
2023-05-23T05:44:26.031Z,34.61
2023-05-23T05:47:31.799Z,34.72
2023-05-23T05:50:36.087Z,34.12
2023-05-23T05:53:40.503Z,34.62
2023-05-23T05:56:44.619Z,33.90
2023-05-23T05:59:48.873Z,34.02
2023-05-23T06:02:53.090Z,34.25
2023-05-23T06:06:09.845Z,33.37
2023-05-23T06:09:16.630Z,33.88
2023-05-23T06:12:22.016Z,33.41
2023-05-23T06:15:26.540Z,32.95
2023-05-23T06:18:30.738Z,33.59
2023-05-23T06:21:35.131Z,33.70
2023-05-23T06:24:42.643Z,33.87
2023-05-23T06:27:47.311Z,33.26
2023-05-23T06:30:51.444Z,34.08
2023-05-23T06:33:55.553Z,35.31
2023-05-23T06:36:59.722Z,34.10
2023-05-23T06:40:04.146Z,34.69
2023-05-23T06:43:09.025Z,35.20
2023-05-23T06:46:21.546Z,35.44
2023-05-23T06:49:26.583Z,35.79
2023-05-23T06:52:30.740Z,35.48
2023-05-23T06:55:35.841Z,36.34
2023-05-23T06:58:43.017Z,37.59
2023-05-23T07:01:48.551Z,37.82
2023-05-23T07:04:52.722Z,38.19
2023-05-23T07:08:16.818Z,38.04
2023-05-23T07:11:36.492Z,38.42
2023-05-23T07:14:41.395Z,38.73
2023-05-23T07:17:47.205Z,38.49
2023-05-23T07:20:51.958Z,38.20
2023-05-23T07:23:57.099Z,38.51
2023-05-23T07:27:01.369Z,38.71
2023-05-23T07:30:08.225Z,38.93
2023-05-23T07:33:15.228Z,39.66
2023-05-23T07:36:23.202Z,40.09
2023-05-23T07:39:28.900Z,39.89
2023-05-23T07:42:34.530Z,39.99
2023-05-23T07:45:39.046Z,39.91
2023-05-23T07:48:45.854Z,39.12
2023-05-23T07:51:50.571Z,38.92
2023-05-23T07:54:54.813Z,38.98
2023-05-23T07:57:59.434Z,38.66
2023-05-23T08:01:06.492Z,38.62
2023-05-23T08:04:30.108Z,38.42
2023-05-23T08:07:33.906Z,38.35
2023-05-23T08:10:41.145Z,38.38
2023-05-23T08:22:16.620Z,37.94
2023-05-23T08:26:00.998Z,38.08
2023-05-23T08:29:19.144Z,38.25
2023-05-23T08:32:24.123Z,38.32
2023-05-23T08:35:30.099Z,38.31
2023-05-23T08:38:34.327Z,38.56
2023-05-23T08:41:53.624Z,38.86
2023-05-23T08:45:03.857Z,39.36
2023-05-23T08:48:14.467Z,39.79
2023-05-23T08:51:27.697Z,40.33
2023-05-23T08:54:36.306Z,40.18
2023-05-23T08:57:44.673Z,40.31
2023-05-23T09:01:19.286Z,41.09
2023-05-23T09:04:26.833Z,41.34
2023-05-23T09:07:35.855Z,41.29
2023-05-23T09:10:48.968Z,41.16
2023-05-23T09:13:53.726Z,41.89
2023-05-23T09:17:04.739Z,42.18
2023-05-23T09:20:18.234Z,42.89
2023-05-23T09:23:36.013Z,43.27
2023-05-23T09:27:04.882Z,43.16
2023-05-23T09:30:11.025Z,44.38
2023-05-23T09:33:16.221Z,44.69
2023-05-23T09:36:20.738Z,47.40
2023-05-23T09:39:25.586Z,45.77
2023-05-23T09:42:37.774Z,45.66
2023-05-23T09:45:42.686Z,45.72
2023-05-23T09:48:54.813Z,46.98
2023-05-23T09:52:00.006Z,47.74
2023-05-23T09:55:04.364Z,48.27
2023-05-23T09:58:10.461Z,48.23
2023-05-23T10:01:15.585Z,49.94
2023-05-23T10:04:26.896Z,50.66
2023-05-23T10:07:31.823Z,51.29
2023-05-23T10:10:57.100Z,51.50
2023-05-23T10:14:12.474Z,53.23
2023-05-23T10:17:23.499Z,53.02
2023-05-23T10:20:32.935Z,54.37
2023-05-23T10:23:38.976Z,53.11
2023-05-23T10:26:46.494Z,53.91
2023-05-23T10:29:51.613Z,54.82
2023-05-23T10:33:00.487Z,55.57
2023-05-23T10:36:16.593Z,55.52
2023-05-23T10:39:37.848Z,55.89
2023-05-23T10:42:55.790Z,55.58
2023-05-23T10:46:00.589Z,55.26
2023-05-23T10:49:12.650Z,55.64
2023-05-23T10:52:19.013Z,55.43
2023-05-23T10:55:23.917Z,56.39
2023-05-23T10:58:32.881Z,57.69
2023-05-23T11:01:41.350Z,58.45
2023-05-23T11:04:46.761Z,58.74
2023-05-23T11:08:43.151Z,59.39
2023-05-23T11:11:55.479Z,58.98
2023-05-23T11:15:00.174Z,59.19
2023-05-23T11:18:10.345Z,58.86
2023-05-23T11:21:17.878Z,58.78
2023-05-23T11:24:25.997Z,57.54
2023-05-23T11:27:38.584Z,57.22
2023-05-23T11:30:43.661Z,57.30
2023-05-23T11:33:52.076Z,57.59
2023-05-23T11:36:57.655Z,56.83
2023-05-23T11:40:29.373Z,57.16
2023-05-23T11:43:35.969Z,57.34
2023-05-23T11:46:42.099Z,58.33
2023-05-23T11:49:49.549Z,57.92
2023-05-23T11:52:56.760Z,58.47
2023-05-23T11:56:04.572Z,58.70
2023-05-23T11:59:09.440Z,58.57
2023-05-23T12:02:13.891Z,57.71
2023-05-23T12:05:21.530Z,57.52
2023-05-23T12:08:28.504Z,56.92
2023-05-23T12:11:34.162Z,56.73
2023-05-23T12:14:49.274Z,56.78
2023-05-23T12:17:57.889Z,55.82
2023-05-23T12:21:09.101Z,55.75
2023-05-23T12:24:24.472Z,55.43
2023-05-23T12:27:38.007Z,54.89
2023-05-23T12:30:45.446Z,55.43
2023-05-23T12:33:50.912Z,56.52
2023-05-23T12:37:10.549Z,58.25
2023-05-23T12:40:23.573Z,58.07
2023-05-23T12:43:30.421Z,57.96
2023-05-23T12:46:34.973Z,56.73
2023-05-23T12:49:39.848Z,57.49
2023-05-23T12:52:44.597Z,58.23
2023-05-23T12:55:49.201Z,58.61
2023-05-23T12:58:56.924Z,59.50
2023-05-23T13:02:02.776Z,59.09
2023-05-23T13:05:07.777Z,58.93
2023-05-23T13:08:13.309Z,59.33
2023-05-23T13:11:17.726Z,59.64
2023-05-23T13:14:25.045Z,58.69
2023-05-23T13:17:29.778Z,60.07
2023-05-23T13:20:35.171Z,60.57
2023-05-23T13:23:39.920Z,61.96
2023-05-23T13:26:44.364Z,60.15
2023-05-23T13:29:48.754Z,60.56
2023-05-23T13:32:52.877Z,61.93
2023-05-23T13:35:57.162Z,60.42
2023-05-23T13:39:01.826Z,59.38
2023-05-23T13:42:06.324Z,59.86
2023-05-23T13:45:10.689Z,59.91
2023-05-23T13:48:15.347Z,59.60
2023-05-23T13:51:19.474Z,59.40
2023-05-23T13:54:23.438Z,59.96
2023-05-23T13:57:27.860Z,59.46
2023-05-23T14:00:31.773Z,59.20
2023-05-23T14:03:35.991Z,58.79
2023-05-23T14:06:40.159Z,58.55
2023-05-23T14:09:44.244Z,58.84
2023-05-23T14:12:48.460Z,58.80
2023-05-23T14:15:53.819Z,58.63
2023-05-23T14:18:58.081Z,59.43
2023-05-23T14:22:02.351Z,59.30
2023-05-23T14:25:07.811Z,58.44
2023-05-23T14:28:12.196Z,58.30
2023-05-23T14:31:16.190Z,58.57
2023-05-23T14:34:20.333Z,58.90
2023-05-23T14:37:24.191Z,58.19
2023-05-23T14:40:28.289Z,58.32
2023-05-23T14:43:32.898Z,58.26
2023-05-23T14:46:37.216Z,58.16
2023-05-23T14:49:41.563Z,58.30
2023-05-23T14:52:45.681Z,58.22
2023-05-23T14:55:49.544Z,58.31
2023-05-23T14:58:53.555Z,57.34
2023-05-23T15:01:57.607Z,57.44
2023-05-23T15:05:01.885Z,57.75
2023-05-23T15:08:07.660Z,58.18
2023-05-23T15:11:11.728Z,58.14
2023-05-23T15:14:15.735Z,57.72
2023-05-23T15:17:25.871Z,57.74
2023-05-23T15:20:30.576Z,57.76
2023-05-23T15:23:35.077Z,58.41
2023-05-23T15:26:39.704Z,58.82
2023-05-23T15:29:43.857Z,58.93
2023-05-23T15:32:48.371Z,59.60
2023-05-23T15:35:53.786Z,59.13
2023-05-23T15:38:57.900Z,59.24
2023-05-23T15:42:01.988Z,58.98
2023-05-23T15:45:06.564Z,59.42
2023-05-23T15:48:12.207Z,58.78
2023-05-23T15:51:17.299Z,58.83
2023-05-23T15:54:21.836Z,58.94
2023-05-23T15:57:26.021Z,59.08
2023-05-23T16:00:30.253Z,59.07
2023-05-23T16:03:34.336Z,59.23
2023-05-23T16:06:39.558Z,58.97
2023-05-23T16:09:43.949Z,59.18
2023-05-23T16:12:48.142Z,59.05
2023-05-23T16:15:52.977Z,58.42
2023-05-23T16:18:56.980Z,58.88
2023-05-23T16:22:01.300Z,59.13
2023-05-23T16:25:07.617Z,59.14
2023-05-23T16:28:12.564Z,58.90
2023-05-23T16:31:17.729Z,59.39
2023-05-23T16:34:21.971Z,59.39
2023-05-23T16:37:26.109Z,59.70
2023-05-23T16:40:30.178Z,59.24
2023-05-23T16:43:35.476Z,59.00
2023-05-23T16:46:39.599Z,59.38
2023-05-23T16:49:43.806Z,59.75
2023-05-23T16:52:48.650Z,59.28
2023-05-23T16:55:53.134Z,59.39
2023-05-23T16:58:57.524Z,59.03
2023-05-23T17:02:01.742Z,58.90
2023-05-23T17:05:06.037Z,58.90
2023-05-23T17:08:10.112Z,58.98
2023-05-23T17:11:16.500Z,58.90
2023-05-23T17:14:23.384Z,58.87
2023-05-23T17:17:27.706Z,58.96
2023-05-23T17:20:31.873Z,58.68
2023-05-23T17:23:35.752Z,58.61
2023-05-23T17:26:42.934Z,58.50
2023-05-23T17:29:58.884Z,58.17
2023-05-23T17:33:04.199Z,58.46
2023-05-23T17:36:08.646Z,58.13
2023-05-23T17:39:12.679Z,58.32
2023-05-23T17:42:16.480Z,58.99
2023-05-23T17:45:20.562Z,58.64
2023-05-23T17:48:38.300Z,58.31
2023-05-23T17:51:48.683Z,58.08
2023-05-23T17:54:53.134Z,57.70
2023-05-23T17:57:57.435Z,57.98
2023-05-23T18:01:01.490Z,58.15
2023-05-23T18:04:05.791Z,57.89
2023-05-23T18:07:13.849Z,57.59
2023-05-23T18:10:18.187Z,57.59
2023-05-23T18:13:23.855Z,57.51
2023-05-23T18:16:28.194Z,57.35
2023-05-23T18:19:32.395Z,57.41
2023-05-23T18:22:36.985Z,57.35
2023-05-23T18:25:40.963Z,57.30
2023-05-23T18:28:44.833Z,57.57
2023-05-23T18:31:48.827Z,57.41
2023-05-23T18:34:53.410Z,57.33
2023-05-23T18:37:58.022Z,57.41
2023-05-23T18:41:02.133Z,57.22
2023-05-23T18:44:06.139Z,57.03
2023-05-23T18:47:10.192Z,56.91
2023-05-23T18:50:16.234Z,56.94
2023-05-23T18:53:20.681Z,56.84
2023-05-23T18:56:25.059Z,56.81
2023-05-23T18:59:29.119Z,56.76
2023-05-23T19:02:33.523Z,56.68
2023-05-23T19:05:37.940Z,56.68
2023-05-23T19:08:43.547Z,56.91
2023-05-23T19:11:47.495Z,57.10
2023-05-23T19:14:51.437Z,57.32
2023-05-23T19:17:55.836Z,57.51
2023-05-23T19:20:59.908Z,58.14
2023-05-23T19:24:08.059Z,58.32
2023-05-23T19:27:12.188Z,58.39
2023-05-23T19:30:16.425Z,58.49
2023-05-23T19:33:20.587Z,58.35
2023-05-23T19:36:25.099Z,58.30
2023-05-23T19:39:29.710Z,59.32
2023-05-23T19:42:34.444Z,59.64
2023-05-23T19:45:38.640Z,59.81
2023-05-23T19:48:46.040Z,59.66
2023-05-23T19:51:50.082Z,60.01
2023-05-23T19:54:54.189Z,59.49
2023-05-23T19:57:58.307Z,59.68
2023-05-23T20:01:02.892Z,60.12
2023-05-23T20:04:08.001Z,59.81
2023-05-23T20:07:12.526Z,60.33
2023-05-23T20:10:16.817Z,60.72
2023-05-23T20:13:21.009Z,61.03
2023-05-23T20:16:25.114Z,61.14
2023-05-23T20:19:29.071Z,61.38
2023-05-23T20:22:33.242Z,61.50
2023-05-23T20:25:37.397Z,61.69
2023-05-23T20:28:41.418Z,61.48
2023-05-23T20:31:45.529Z,61.47
2023-05-23T20:34:52.274Z,61.56
2023-05-23T20:37:56.272Z,61.59
2023-05-23T20:41:06.967Z,61.51
2023-05-23T20:44:14.862Z,61.73
2023-05-23T20:47:18.785Z,61.78
2023-05-23T20:50:23.400Z,61.99
2023-05-23T20:53:28.632Z,62.03
2023-05-23T20:56:33.029Z,63.95
2023-05-23T20:59:37.909Z,62.66
2023-05-23T21:02:43.062Z,62.58
2023-05-23T21:05:47.116Z,62.62
2023-05-23T21:08:51.142Z,62.74
2023-05-23T21:11:58.526Z,62.98
2023-05-23T21:15:02.502Z,62.94
2023-05-23T21:18:11.428Z,62.76
2023-05-23T21:21:15.561Z,62.29
2023-05-23T21:24:19.732Z,61.93
2023-05-23T21:27:23.775Z,62.29
2023-05-23T21:30:27.734Z,62.30
2023-05-23T21:33:31.700Z,62.00
2023-05-23T21:36:35.586Z,62.51
2023-05-23T21:39:51.365Z,62.51
2023-05-23T21:42:57.059Z,62.54
2023-05-23T21:52:06.785Z,61.62
2023-05-23T21:55:18.549Z,61.62
2023-05-23T21:58:25.948Z,61.57
2023-05-23T22:01:30.128Z,61.05
2023-05-23T22:04:34.489Z,60.48
2023-05-23T22:07:38.604Z,59.36
2023-05-23T22:10:43.830Z,60.10
2023-05-23T22:13:53.054Z,59.82
2023-05-23T22:16:59.697Z,55.51
2023-05-23T22:20:07.822Z,52.37
2023-05-23T22:23:17.585Z,49.74
2023-05-23T22:26:22.786Z,48.18
2023-05-23T22:29:35.474Z,47.76
2023-05-23T22:32:39.021Z,44.04
2023-05-23T22:35:45.229Z,43.07
2023-05-23T22:38:48.660Z,42.76
2023-05-23T22:41:52.265Z,41.58
2023-05-23T22:44:55.882Z,41.37
2023-05-23T22:48:01.619Z,39.56
2023-05-23T22:51:06.344Z,39.43
2023-05-23T22:54:09.937Z,38.38
2023-05-23T22:57:13.543Z,37.33
2023-05-23T23:00:17.330Z,37.34
2023-05-23T23:03:21.082Z,34.17
2023-05-23T23:06:27.561Z,37.11
2023-05-23T23:09:31.410Z,35.79
2023-05-23T23:12:34.990Z,34.79
2023-05-23T23:15:39.519Z,34.15
2023-05-23T23:18:43.062Z,33.85
2023-05-23T23:21:46.480Z,34.71
2023-05-23T23:24:53.617Z,34.55
2023-05-23T23:27:57.121Z,34.29
2023-05-23T23:31:00.753Z,34.18
2023-05-23T23:34:04.387Z,34.44
2023-05-23T23:37:10.716Z,33.15
2023-05-23T23:40:14.597Z,33.19
2023-05-23T23:43:18.232Z,33.78
2023-05-23T23:46:21.724Z,33.60
2023-05-23T23:49:25.619Z,32.39
2023-05-23T23:52:28.976Z,32.69
2023-05-23T23:55:32.452Z,32.74
2023-05-23T23:58:36.785Z,32.86
